createdAt,value
2022-12-01T00:02:10.634Z,101309
2022-12-01T00:08:58.144Z,101305
2022-12-01T00:15:15.518Z,101309
2022-12-01T00:23:21.626Z,101303
2022-12-01T00:36:33.600Z,101308
2022-12-01T00:42:23.298Z,101309
2022-12-01T00:48:15.149Z,101306
2022-12-01T00:54:06.141Z,101300
2022-12-01T00:59:58.182Z,101304
2022-12-01T01:05:49.259Z,101311
2022-12-01T01:11:40.743Z,101316
2022-12-01T01:17:32.129Z,101321
2022-12-01T01:23:23.455Z,101324
2022-12-01T01:29:14.582Z,101332
2022-12-01T01:35:07.208Z,101337
2022-12-01T01:40:59.859Z,101339
2022-12-01T01:46:54.778Z,101334
2022-12-01T01:52:50.915Z,101337
2022-12-01T01:58:44.243Z,101332
2022-12-01T02:04:35.713Z,101330
2022-12-01T02:10:28.069Z,101327
2022-12-01T02:16:24.254Z,101330
2022-12-01T02:22:15.780Z,101333
2022-12-01T02:28:08.737Z,101327
2022-12-01T02:34:08.369Z,101321
2022-12-01T02:40:01.156Z,101324
2022-12-01T02:45:53.611Z,101317
2022-12-01T02:51:50.399Z,101317
2022-12-01T02:57:53.657Z,101321
2022-12-01T03:03:50.300Z,101318
2022-12-01T03:09:41.892Z,101313
2022-12-01T03:15:31.334Z,101305
2022-12-01T03:21:23.578Z,101308
2022-12-01T03:27:16.347Z,101310
2022-12-01T03:33:08.095Z,101304
2022-12-01T03:39:00.590Z,101308
2022-12-01T03:44:52.025Z,101310
2022-12-01T03:50:44.451Z,101304
2022-12-01T03:56:36.774Z,101306
2022-12-01T04:02:30.350Z,101307
2022-12-01T04:08:22.403Z,101314
2022-12-01T04:14:14.620Z,101313
2022-12-01T04:20:06.662Z,101319
2022-12-01T04:25:58.800Z,101316
2022-12-01T04:31:50.104Z,101318
2022-12-01T04:37:43.335Z,101311
2022-12-01T04:43:36.182Z,101311
2022-12-01T04:49:27.659Z,101305
2022-12-01T04:55:18.917Z,101308
2022-12-01T05:01:09.024Z,101310
2022-12-01T05:07:02.893Z,101309
2022-12-01T05:12:54.050Z,101312
2022-12-01T05:18:43.913Z,101315
2022-12-01T05:24:32.965Z,101320
2022-12-01T05:30:30.647Z,101324
2022-12-01T05:36:22.330Z,101319
2022-12-01T05:42:13.761Z,101318
2022-12-01T05:48:06.314Z,101315
2022-12-01T05:54:00.246Z,101310
2022-12-01T05:59:52.551Z,101312
2022-12-01T06:05:44.951Z,101319
2022-12-01T06:11:42.303Z,101323
2022-12-01T06:17:43.813Z,101337
2022-12-01T06:23:35.381Z,101341
2022-12-01T06:29:27.905Z,101347
2022-12-01T06:35:17.361Z,101349
2022-12-01T06:41:09.283Z,101348
2022-12-01T07:47:49.885Z,101395
2022-12-01T07:53:51.260Z,101392
2022-12-01T08:00:07.751Z,101394
2022-12-01T08:06:13.291Z,101393
2022-12-01T08:12:29.039Z,101397
2022-12-01T08:18:24.632Z,101400
2022-12-01T08:24:27.011Z,101403
2022-12-01T08:36:45.653Z,101408
2022-12-01T08:42:38.959Z,101417
2022-12-01T08:48:53.134Z,101417
2022-12-01T08:54:57.647Z,101414
2022-12-01T09:01:00.735Z,101418
2022-12-01T09:07:16.777Z,101416
2022-12-01T09:13:41.547Z,101423
2022-12-01T09:26:15.679Z,101426
2022-12-01T09:32:56.996Z,101436
2022-12-01T10:05:23.039Z,101419
2022-12-01T10:11:17.211Z,101425
2022-12-01T10:17:11.219Z,101424
2022-12-01T10:23:09.963Z,101409
2022-12-01T11:13:31.603Z,101394
2022-12-01T11:20:01.369Z,101387
2022-12-01T11:53:05.337Z,101366
2022-12-01T11:58:58.446Z,101355
2022-12-01T12:04:51.201Z,101358
2022-12-01T12:10:48.430Z,101356
2022-12-01T12:16:40.666Z,101357
2022-12-01T12:29:07.121Z,101349
2022-12-01T12:41:52.690Z,101342
2022-12-01T12:48:29.183Z,101345
2022-12-01T13:01:18.755Z,101334
2022-12-01T13:13:11.369Z,101328
2022-12-01T13:19:13.932Z,101331
2022-12-01T13:25:15.896Z,101327
2022-12-01T14:04:14.613Z,101306
2022-12-01T14:10:35.321Z,101305
2022-12-01T14:23:26.116Z,101305
2022-12-01T14:29:57.469Z,101307
2022-12-01T15:09:42.626Z,101300
2022-12-01T15:15:52.794Z,101302
2022-12-01T15:34:06.871Z,101304
2022-12-01T18:17:15.351Z,101361
2022-12-01T21:43:08.115Z,101336
2022-12-01T21:48:57.978Z,101333
2022-12-01T21:54:51.735Z,101333
2022-12-01T22:00:48.563Z,101330
2022-12-01T22:06:40.707Z,101319
2022-12-01T22:12:31.952Z,101308
2022-12-01T22:18:26.302Z,101311
2022-12-01T22:24:19.983Z,101307
2022-12-01T22:30:10.415Z,101298
2022-12-01T22:36:00.592Z,101295
2022-12-01T22:41:55.904Z,101284
2022-12-01T22:47:48.768Z,101286
2022-12-01T22:53:38.466Z,101283
2022-12-01T22:59:28.373Z,101285
2022-12-01T23:05:20.050Z,101277
2022-12-01T23:11:10.124Z,101280
2022-12-01T23:17:01.498Z,101278
2022-12-01T23:22:52.194Z,101276
2022-12-01T23:28:45.529Z,101272
2022-12-01T23:34:36.489Z,101263
2022-12-01T23:40:30.289Z,101263
2022-12-01T23:46:33.897Z,101259
2022-12-01T23:52:24.237Z,101256
2022-12-01T23:58:15.732Z,101259
